Time;durP1;ratioP1;P1;durP2;ratioP2;P2;SDS_P1;SDS_P2;PMS_P1;PMS_P2;Temp;Humidity;BMP_temperature;BMP_pressure;BME280_temperature;BME280_humidity;BME280_pressure;Samples;Min_cycle;Max_cycle;Signal;HPM_P1;HPM_P2
2023/09/06 00:00:15;;;;;;;0.40;0.40;;;;;;;13.75;76.82;99410.50;6225509;23;20020;-84
2023/09/06 00:02:43;;;;;;;0.40;0.40;;;;;;;13.72;77.13;99413.72;6222609;23;20031;-85
2023/09/06 00:05:10;;;;;;;0.50;0.50;;;;;;;13.58;77.31;99408.72;6212033;23;20044;-85
2023/09/06 00:07:37;;;;;;;0.50;0.50;;;;;;;13.53;77.92;99411.38;6210012;23;20031;-86
2023/09/06 00:10:04;;;;;;;0.52;0.52;;;;;;;13.41;78.59;99410.69;6185282;23;20452;-86
2023/09/06 00:12:32;;;;;;;0.50;0.50;;;;;;;13.30;79.35;99409.75;6211854;23;20107;-85
2023/09/06 00:14:59;;;;;;;0.50;0.50;;;;;;;13.28;79.88;99409.16;6212198;23;20020;-85
2023/09/06 00:17:26;;;;;;;0.40;0.40;;;;;;;13.16;80.06;99408.44;6212086;23;20055;-84
2023/09/06 00:19:53;;;;;;;0.40;0.40;;;;;;;13.17;80.64;99404.69;6212205;23;20052;-85
2023/09/06 00:22:20;;;;;;;0.50;0.50;;;;;;;13.10;80.84;99399.44;6185058;23;20016;-85
2023/09/06 00:24:47;;;;;;;0.40;0.40;;;;;;;12.96;81.34;99393.56;6184225;23;20040;-86
2023/09/06 00:27:14;;;;;;;0.50;0.50;;;;;;;12.93;82.07;99398.66;6184371;23;20029;-86
2023/09/06 00:29:41;;;;;;;0.50;0.50;;;;;;;12.80;82.46;99397.13;6207761;23;20024;-85
2023/09/06 00:32:10;;;;;;;0.40;0.40;;;;;;;12.78;83.04;99405.50;6211224;23;20021;-85
2023/09/06 00:34:37;;;;;;;0.50;0.50;;;;;;;12.74;83.40;99393.53;6183850;23;20024;-85
2023/09/06 00:37:07;;;;;;;0.50;0.50;;;;;;;12.67;83.77;99394.78;6184909;23;20378;-85
2023/09/06 00:39:34;;;;;;;0.50;0.50;;;;;;;12.63;84.28;99391.72;6211023;23;20017;-85
2023/09/06 00:42:03;;;;;;;0.50;0.50;;;;;;;12.61;84.59;99387.63;6158437;23;20727;-86
2023/09/06 00:44:30;;;;;;;0.50;0.50;;;;;;;12.58;84.89;99381.66;6184677;23;20412;-85
2023/09/06 00:46:59;;;;;;;0.50;0.50;;;;;;;12.52;85.11;99385.34;6184988;23;20028;-86
2023/09/06 00:49:26;;;;;;;0.50;0.50;;;;;;;12.43;85.59;99381.44;6182351;23;20496;-85
2023/09/06 00:51:53;;;;;;;0.50;0.50;;;;;;;12.43;86.03;99380.59;6184740;23;20051;-84
2023/09/06 00:54:21;;;;;;;0.50;0.50;;;;;;;12.40;86.21;99379.22;6185179;23;20048;-85
2023/09/06 00:56:48;;;;;;;0.50;0.50;;;;;;;12.33;86.36;99373.13;6210050;23;20575;-85
2023/09/06 00:59:21;;;;;;;0.50;0.50;;;;;;;12.30;87.12;99382.56;6211122;23;20074;-85
2023/09/06 01:01:49;;;;;;;0.50;0.50;;;;;;;12.24;87.19;99372.75;6211638;23;20358;-85
2023/09/06 01:04:16;;;;;;;0.50;0.50;;;;;;;12.21;87.36;99375.13;6185088;23;20383;-85
2023/09/06 01:06:44;;;;;;;0.60;0.60;;;;;;;12.09;87.77;99361.69;6211103;23;20110;-85
2023/09/06 01:09:11;;;;;;;0.50;0.50;;;;;;;12.07;88.27;99364.63;6213209;23;20103;-85
2023/09/06 01:11:39;;;;;;;0.50;0.50;;;;;;;12.06;88.62;99368.41;6186706;23;20112;-85
2023/09/06 01:14:07;;;;;;;0.50;0.50;;;;;;;12.06;88.88;99363.00;6186797;23;20024;-85
2023/09/06 01:16:41;;;;;;;0.50;0.50;;;;;;;12.08;89.12;99355.44;6213004;23;20104;-85
2023/09/06 01:19:14;;;;;;;0.50;0.50;;;;;;;12.11;89.16;99357.66;6162979;23;20021;-84
2023/09/06 01:21:48;;;;;;;0.50;0.50;;;;;;;12.11;89.04;99349.53;6213317;23;20031;-85
2023/09/06 01:24:16;;;;;;;0.50;0.50;;;;;;;12.05;89.17;99342.41;6213028;23;20021;-85
2023/09/06 01:26:43;;;;;;;0.50;0.50;;;;;;;12.07;89.20;99345.69;6183105;23;20397;-85
2023/09/06 01:29:11;;;;;;;0.50;0.50;;;;;;;12.02;89.45;99339.38;6211640;23;20020;-85
2023/09/06 01:31:40;;;;;;;0.43;0.43;;;;;;;11.99;89.85;99347.97;6186580;23;20028;-85
2023/09/06 01:34:08;;;;;;;0.60;0.60;;;;;;;12.01;90.11;99341.25;6162159;23;20028;-85
2023/09/06 01:36:36;;;;;;;0.60;0.60;;;;;;;12.02;90.04;99332.06;6210718;23;20329;-84
2023/09/06 01:39:06;;;;;;;0.50;0.50;;;;;;;11.95;89.92;99314.38;6187356;23;20071;-87
2023/09/06 01:41:33;;;;;;;0.50;0.50;;;;;;;11.98;89.96;99313.91;6213971;23;20028;-89
2023/09/06 01:44:00;;;;;;;0.50;0.50;;;;;;;11.96;89.95;99318.72;6188111;23;20510;-92
2023/09/06 01:46:30;;;;;;;0.50;0.50;;;;;;;11.90;90.56;99307.81;6214263;23;20098;-87
2023/09/06 01:48:59;;;;;;;0.60;0.60;;;;;;;11.87;90.57;99304.78;6211438;23;20102;-84
2023/09/06 01:51:26;;;;;;;0.57;0.57;;;;;;;11.83;90.44;99298.22;6186622;23;20083;-85
2023/09/06 01:53:54;;;;;;;0.60;0.60;;;;;;;11.91;90.59;99314.06;6187084;23;20135;-84
2023/09/06 01:56:21;;;;;;;0.50;0.50;;;;;;;11.91;90.40;99303.22;6186997;23;20404;-84
2023/09/06 01:58:48;;;;;;;0.52;0.52;;;;;;;11.99;90.38;99310.94;6162252;23;20024;-84
2023/09/06 02:01:16;;;;;;;0.50;0.50;;;;;;;12.09;89.86;99316.50;6211530;23;20479;-86
2023/09/06 02:03:43;;;;;;;0.50;0.50;;;;;;;12.20;89.25;99306.66;6213437;23;20028;-85
2023/09/06 02:06:11;;;;;;;0.50;0.50;;;;;;;12.28;88.84;99298.13;6213257;23;20047;-85
2023/09/06 02:08:40;;;;;;;0.50;0.50;;;;;;;12.36;88.35;99300.41;6214178;23;20020;-85
2023/09/06 02:11:08;;;;;;;0.50;0.50;;;;;;;12.36;87.97;99291.47;6211469;23;20107;-85
2023/09/06 02:13:35;;;;;;;0.50;0.50;;;;;;;12.43;87.73;99292.13;6186839;23;20095;-85
2023/09/06 02:16:06;;;;;;;0.50;0.50;;;;;;;12.45;87.46;99284.53;6214782;23;20030;-84
2023/09/06 02:18:34;;;;;;;0.50;0.50;;;;;;;12.48;87.42;99281.34;6187342;23;20024;-86
2023/09/06 02:21:21;;;;;;;0.57;0.57;;;;;;;12.49;87.08;99288.41;6192152;23;20021;-85
2023/09/06 02:23:48;;;;;;;0.50;0.50;;;;;;;12.49;87.15;99276.75;6213865;23;20020;-85
2023/09/06 02:26:16;;;;;;;0.50;0.50;;;;;;;12.50;87.15;99278.38;6162441;23;20119;-87
2023/09/06 02:28:43;;;;;;;0.60;0.60;;;;;;;12.54;86.90;99283.06;6214849;23;20063;-90
2023/09/06 02:31:13;;;;;;;0.50;0.50;;;;;;;12.55;86.64;99278.44;6214848;23;20021;-85
2023/09/06 02:33:42;;;;;;;0.50;0.50;;;;;;;12.56;86.60;99274.69;6185430;23;20029;-86
2023/09/06 02:36:09;;;;;;;0.50;0.50;;;;;;;12.49;86.57;99265.94;6187655;23;20352;-85
2023/09/06 02:38:36;;;;;;;0.50;0.50;;;;;;;12.55;86.35;99265.72;6214007;23;20031;-85
2023/09/06 02:41:03;;;;;;;0.50;0.50;;;;;;;12.61;86.16;99279.34;6213527;23;20031;-83
2023/09/06 02:43:30;;;;;;;0.50;0.50;;;;;;;12.62;85.95;99265.56;6213331;23;20024;-85
2023/09/06 02:46:02;;;;;;;0.50;0.50;;;;;;;12.66;85.25;99274.81;6187474;23;20515;-85
2023/09/06 02:48:33;;;;;;;0.50;0.50;;;;;;;12.66;85.41;99276.69;6213578;23;20029;-85
2023/09/06 02:51:00;;;;;;;0.50;0.50;;;;;;;12.63;85.43;99271.78;6214111;23;20424;-84
2023/09/06 02:53:31;;;;;;;0.50;0.50;;;;;;;12.61;85.35;99269.34;6187708;23;20051;-85
2023/09/06 02:55:59;;;;;;;0.50;0.50;;;;;;;12.61;85.28;99263.09;6218316;23;20452;-86
2023/09/06 02:58:26;;;;;;;0.60;0.60;;;;;;;12.58;85.58;99270.66;6198750;23;20040;-85
2023/09/06 03:00:57;;;;;;;0.50;0.50;;;;;;;12.60;85.70;99269.59;6233213;23;20017;-85
2023/09/06 03:03:27;;;;;;;0.50;0.50;;;;;;;12.62;85.83;99270.16;6187665;23;20029;-85
2023/09/06 03:05:57;;;;;;;0.50;0.50;;;;;;;12.64;85.63;99262.59;6187350;23;20155;-85
2023/09/06 03:08:25;;;;;;;0.50;0.50;;;;;;;12.70;85.48;99267.00;6212834;23;20028;-86
2023/09/06 03:10:59;;;;;;;0.50;0.50;;;;;;;12.69;85.29;99254.53;6213136;23;20021;-86
2023/09/06 03:13:29;;;;;;;0.40;0.40;;;;;;;12.74;85.43;99252.72;6211705;23;20055;-85
2023/09/06 03:15:59;;;;;;;0.50;0.50;;;;;;;12.75;85.20;99253.53;6161997;23;20419;-85
2023/09/06 03:18:29;;;;;;;0.40;0.40;;;;;;;12.75;84.99;99231.88;6213010;23;20052;-85
2023/09/06 03:21:04;;;;;;;0.50;0.50;;;;;;;12.86;84.72;99241.72;6213389;23;20025;-85
2023/09/06 03:23:32;;;;;;;0.50;0.50;;;;;;;12.89;84.51;99240.44;6211339;23;20043;-86
2023/09/06 03:26:05;;;;;;;0.50;0.50;;;;;;;12.95;84.08;99239.41;6211798;23;20021;-86
2023/09/06 03:31:26;;;;;;;0.50;0.50;;;;;;;12.95;83.83;99231.28;6229662;23;20027;-86
2023/09/06 03:33:53;;;;;;;0.50;0.50;;;;;;;12.98;83.59;99231.56;6207833;23;20100;-86
2023/09/06 03:36:24;;;;;;;0.50;0.50;;;;;;;12.94;83.56;99225.03;6188322;23;20024;-86
2023/09/06 03:38:52;;;;;;;0.50;0.50;;;;;;;12.86;83.73;99224.66;6188211;23;20333;-85
2023/09/06 03:41:23;;;;;;;0.55;0.55;;;;;;;12.89;83.75;99222.28;6213547;23;20024;-86
2023/09/06 03:43:53;;;;;;;0.50;0.50;;;;;;;12.93;83.83;99225.28;6163421;23;20309;-86
2023/09/06 03:46:22;;;;;;;0.60;0.60;;;;;;;12.97;83.68;99227.25;6213418;23;20030;-85
2023/09/06 03:48:49;;;;;;;0.60;0.60;;;;;;;13.10;82.97;99234.16;6212621;23;20056;-86
2023/09/06 03:51:17;;;;;;;0.60;0.60;;;;;;;13.30;82.09;99219.19;6187379;23;20067;-86
2023/09/06 03:53:47;;;;;;;0.52;0.52;;;;;;;13.36;81.63;99218.97;6211079;23;20025;-86
2023/09/06 03:56:15;;;;;;;0.50;0.50;;;;;;;13.42;81.42;99215.25;6185974;23;20514;-86
2023/09/06 03:58:45;;;;;;;0.50;0.50;;;;;;;13.46;81.09;99215.53;6161162;23;20020;-85
2023/09/06 04:01:16;;;;;;;0.50;0.50;;;;;;;13.51;81.00;99206.63;6186982;23;20124;-86
2023/09/06 04:03:50;;;;;;;0.50;0.50;;;;;;;13.57;80.80;99211.84;6186332;23;20028;-86
2023/09/06 04:06:19;;;;;;;0.60;0.60;;;;;;;13.60;80.65;99208.59;6211712;23;20032;-87
2023/09/06 04:08:46;;;;;;;0.50;0.50;;;;;;;13.65;80.63;99202.41;6212837;23;20029;-86
2023/09/06 04:11:14;;;;;;;0.50;0.50;;;;;;;13.65;80.48;99199.69;6186800;23;20448;-86
2023/09/06 04:13:43;;;;;;;0.43;0.43;;;;;;;13.70;80.38;99197.03;6186403;23;20456;-85
2023/09/06 04:16:13;;;;;;;0.50;0.50;;;;;;;13.75;79.79;99196.22;6187123;23;20444;-87
2023/09/06 04:18:42;;;;;;;0.50;0.50;;;;;;;13.76;79.75;99193.25;6211905;23;20386;-86
2023/09/06 04:21:10;;;;;;;0.50;0.50;;;;;;;13.79;79.85;99187.31;6187075;23;20411;-86
2023/09/06 04:23:40;;;;;;;0.60;0.60;;;;;;;13.83;79.52;99176.78;6211363;23;20051;-85
2023/09/06 04:26:11;;;;;;;0.55;0.55;;;;;;;13.85;79.32;99180.84;6187111;23;20029;-86
2023/09/06 04:28:40;;;;;;;0.50;0.50;;;;;;;13.88;79.33;99179.50;6212606;23;20452;-86
2023/09/06 04:31:10;;;;;;;0.50;0.50;;;;;;;13.84;79.46;99179.19;6187215;23;20032;-86
2023/09/06 04:33:42;;;;;;;0.50;0.50;;;;;;;13.86;79.60;99174.34;6162923;23;20103;-86
2023/09/06 04:36:22;;;;;;;0.50;0.50;;;;;;;13.87;79.02;99165.13;6211990;23;20016;-86
2023/09/06 04:38:56;;;;;;;0.50;0.50;;;;;;;13.94;79.17;99162.19;6186526;23;20103;-86
2023/09/06 04:41:24;;;;;;;0.50;0.50;;;;;;;14.32;78.44;99177.28;6212234;23;20016;-86
2023/09/06 04:43:59;;;;;;;0.50;0.50;;;;;;;14.60;77.10;99171.72;6209969;23;20021;-86
2023/09/06 04:46:28;;;;;;;0.50;0.50;;;;;;;14.77;76.49;99166.91;6186612;23;20475;-87
2023/09/06 04:48:58;;;;;;;0.50;0.50;;;;;;;14.71;76.52;99173.38;6162152;23;20108;-86
2023/09/06 04:51:27;;;;;;;0.40;0.40;;;;;;;14.48;76.76;99170.03;6160648;23;20048;-85
2023/09/06 04:54:03;;;;;;;0.50;0.50;;;;;;;14.30;77.18;99154.19;6161098;23;20033;-85
2023/09/06 04:56:35;;;;;;;0.60;0.60;;;;;;;14.46;77.09;99165.97;6161577;23;20027;-85
2023/09/06 04:59:03;;;;;;;0.60;0.60;;;;;;;14.71;76.00;99155.22;6211562;23;20025;-87
2023/09/06 05:01:30;;;;;;;0.50;0.50;;;;;;;15.05;75.19;99170.22;6213042;23;20047;-87
2023/09/06 05:03:58;;;;;;;0.50;0.50;;;;;;;15.17;74.95;99177.03;6190742;23;20104;-89
2023/09/06 05:10:29;;;;;;;0.40;0.40;;;;;;;14.88;75.55;99175.88;6207568;23;20020;-87
2023/09/06 05:12:57;;;;;;;0.52;0.52;;;;;;;15.02;75.22;99168.84;6183511;23;20035;-88
2023/09/06 05:15:25;;;;;;;0.50;0.50;;;;;;;15.15;74.90;99167.50;6185232;23;20020;-86
2023/09/06 05:17:53;;;;;;;0.50;0.50;;;;;;;15.13;75.03;99178.63;6179762;23;20020;-84
2023/09/06 05:20:33;;;;;;;0.50;0.50;;;;;;;15.18;74.98;99170.47;6207698;23;20027;-87
2023/09/06 05:23:10;;;;;;;0.50;0.50;;;;;;;15.22;74.95;99176.22;6206836;23;20077;-84
2023/09/06 05:25:39;;;;;;;0.40;0.40;;;;;;;15.26;74.93;99165.59;6181487;23;20025;-84
2023/09/06 05:28:14;;;;;;;0.50;0.50;;;;;;;15.22;74.85;99156.34;6180871;23;20389;-85
2023/09/06 05:30:49;;;;;;;0.50;0.50;;;;;;;15.10;75.31;99160.16;6206542;23;20021;-84
2023/09/06 05:33:17;;;;;;;0.50;0.50;;;;;;;15.09;75.70;99160.41;6207372;23;20029;-83
2023/09/06 05:35:45;;;;;;;0.47;0.47;;;;;;;15.08;75.48;99151.44;6181486;23;20031;-85
2023/09/06 05:38:16;;;;;;;0.50;0.50;;;;;;;15.20;76.11;99161.25;6181517;23;20036;-84
2023/09/06 05:40:45;;;;;;;0.50;0.50;;;;;;;15.20;75.77;99158.53;6208340;23;20024;-83
2023/09/06 05:43:21;;;;;;;0.50;0.50;;;;;;;15.25;75.68;99148.47;6204834;23;20121;-84
2023/09/06 05:45:48;;;;;;;0.40;0.40;;;;;;;15.28;75.84;99134.34;6206723;23;20031;-85
2023/09/06 05:48:16;;;;;;;0.50;0.50;;;;;;;15.36;75.30;99143.84;6181782;23;20313;-84
2023/09/06 05:50:43;;;;;;;0.50;0.50;;;;;;;15.39;75.34;99132.41;6211968;23;20020;-86
2023/09/06 05:53:11;;;;;;;0.50;0.50;;;;;;;15.46;75.08;99138.41;6212005;23;20028;-84
2023/09/06 05:55:38;;;;;;;0.50;0.50;;;;;;;15.52;75.21;99145.47;6212802;23;20027;-84
2023/09/06 05:58:05;;;;;;;0.40;0.40;;;;;;;15.49;75.07;99113.38;6187749;23;20020;-85
2023/09/06 06:00:34;;;;;;;0.50;0.50;;;;;;;15.74;74.84;99134.31;6187345;23;20075;-85
2023/09/06 06:03:03;;;;;;;0.50;0.50;;;;;;;15.82;74.59;99127.50;6187379;23;20051;-85
2023/09/06 06:05:32;;;;;;;0.50;0.50;;;;;;;16.04;74.11;99119.81;6162644;23;20048;-84
2023/09/06 06:08:02;;;;;;;0.50;0.50;;;;;;;16.17;73.38;99115.69;6213826;23;20034;-85
2023/09/06 06:10:34;;;;;;;0.50;0.50;;;;;;;16.19;73.08;99109.97;6186520;23;20491;-85
2023/09/06 06:13:04;;;;;;;0.50;0.50;;;;;;;16.16;73.22;99108.63;6188172;23;20140;-84
2023/09/06 06:15:33;;;;;;;0.50;0.50;;;;;;;16.33;73.02;99119.16;6212598;23;20031;-83
2023/09/06 06:18:05;;;;;;;0.50;0.50;;;;;;;16.46;72.90;99106.84;6214054;23;20031;-83
2023/09/06 06:20:32;;;;;;;0.50;0.50;;;;;;;16.55;72.69;99109.78;6213705;23;20020;-84
2023/09/06 06:23:10;;;;;;;0.50;0.50;;;;;;;16.73;72.36;99120.00;6187445;23;20046;-84
2023/09/06 06:25:38;;;;;;;0.50;0.50;;;;;;;16.79;71.92;99107.22;6189615;23;20522;-85
2023/09/06 06:28:06;;;;;;;0.40;0.40;;;;;;;16.92;71.87;99119.41;6217131;23;20079;-85
2023/09/06 06:30:36;;;;;;;0.47;0.47;;;;;;;16.96;71.65;99104.91;6235866;23;20064;-86
2023/09/06 06:33:04;;;;;;;0.50;0.50;;;;;;;17.11;71.28;99109.44;6218785;23;20055;-84
2023/09/06 06:35:34;;;;;;;0.50;0.50;;;;;;;17.24;70.84;99114.25;6212039;23;20021;-83
2023/09/06 06:38:02;;;;;;;0.50;0.50;;;;;;;17.29;70.06;99106.03;6212998;23;20028;-84
2023/09/06 06:40:29;;;;;;;0.50;0.50;;;;;;;17.48;69.49;99110.75;6187138;23;20024;-85
2023/09/06 06:42:57;;;;;;;0.60;0.60;;;;;;;17.60;68.87;99103.00;6213426;23;20107;-85
2023/09/06 06:45:29;;;;;;;0.50;0.50;;;;;;;17.59;69.08;99087.72;6114953;23;20028;-82
2023/09/06 06:47:57;;;;;;;0.40;0.40;;;;;;;17.66;68.80;99101.03;6184707;23;20612;-85
2023/09/06 06:50:24;;;;;;;0.50;0.50;;;;;;;17.62;68.80;99089.06;6210728;23;20025;-85
2023/09/06 06:52:51;;;;;;;0.50;0.50;;;;;;;17.77;68.88;99100.63;6177557;23;20036;-85
2023/09/06 06:55:19;;;;;;;0.40;0.40;;;;;;;17.65;68.55;99083.84;6181219;23;20025;-85
2023/09/06 06:57:47;;;;;;;0.50;0.50;;;;;;;17.69;69.28;99090.34;6158701;23;20032;-85
2023/09/06 07:00:17;;;;;;;0.47;0.47;;;;;;;17.71;69.59;99082.69;6155638;23;20021;-85
2023/09/06 07:02:45;;;;;;;0.50;0.50;;;;;;;17.95;68.75;99090.06;6182657;23;20353;-86
2023/09/06 07:05:13;;;;;;;0.40;0.40;;;;;;;17.97;68.56;99075.03;6200410;23;20032;-86
2023/09/06 07:07:40;;;;;;;0.40;0.40;;;;;;;17.98;68.62;99090.31;6188287;23;20029;-84
2023/09/06 07:10:08;;;;;;;0.40;0.40;;;;;;;17.98;68.68;99081.31;6180724;23;20035;-86
2023/09/06 07:12:36;;;;;;;0.50;0.50;;;;;;;18.12;68.68;99084.16;6154574;23;20071;-85
2023/09/06 07:15:11;;;;;;;0.50;0.50;;;;;;;18.40;68.21;99085.16;6154513;23;20088;-85
2023/09/06 07:17:39;;;;;;;0.50;0.50;;;;;;;18.32;67.43;99080.34;6154116;23;20049;-86
2023/09/06 07:20:07;;;;;;;0.40;0.40;;;;;;;18.17;67.75;99078.63;6128608;23;20049;-87
2023/09/06 07:22:35;;;;;;;0.50;0.50;;;;;;;18.28;67.82;99063.75;6178800;23;20025;-88
2023/09/06 07:25:04;;;;;;;0.50;0.50;;;;;;;18.54;67.21;99082.50;6179773;23;20569;-85
2023/09/06 07:27:32;;;;;;;0.50;0.50;;;;;;;18.53;67.26;99080.88;6179237;23;20075;-86
2023/09/06 07:29:59;;;;;;;0.50;0.50;;;;;;;18.61;67.26;99081.03;6178916;23;20024;-87
2023/09/06 07:32:26;;;;;;;0.40;0.40;;;;;;;18.74;66.87;99087.69;6179434;23;20025;-86
2023/09/06 07:34:54;;;;;;;0.50;0.50;;;;;;;18.98;66.20;99081.31;6156834;23;20021;-85
2023/09/06 07:37:23;;;;;;;0.40;0.40;;;;;;;19.13;65.74;99080.25;6180012;23;20025;-85
2023/09/06 07:39:51;;;;;;;0.50;0.50;;;;;;;19.10;65.78;99072.66;6153756;23;20024;-85
2023/09/06 07:42:18;;;;;;;0.50;0.50;;;;;;;19.18;66.00;99074.72;6155035;23;20355;-86
2023/09/06 07:44:46;;;;;;;0.50;0.50;;;;;;;19.49;65.06;99075.78;6180259;23;20032;-85
2023/09/06 07:47:13;;;;;;;0.50;0.50;;;;;;;19.78;64.68;99063.00;6153810;23;20020;-86
2023/09/06 07:49:40;;;;;;;0.60;0.60;;;;;;;19.95;63.13;99062.34;6128949;23;20029;-84
2023/09/06 07:52:11;;;;;;;0.50;0.50;;;;;;;20.35;62.43;99063.44;6156142;23;20620;-86
2023/09/06 07:54:44;;;;;;;0.50;0.50;;;;;;;20.54;61.01;99068.78;6208724;23;20027;-86
2023/09/06 07:57:13;;;;;;;0.40;0.40;;;;;;;20.61;61.34;99066.47;6186358;23;20021;-87
2023/09/06 07:59:40;;;;;;;0.40;0.40;;;;;;;20.14;62.59;99054.84;6213840;23;20024;-83
2023/09/06 08:02:08;;;;;;;0.40;0.40;;;;;;;19.89;63.57;99070.69;6214105;23;20108;-86
2023/09/06 08:04:38;;;;;;;0.40;0.40;;;;;;;19.77;64.36;99066.81;6159447;23;20460;-82
2023/09/06 08:07:06;;;;;;;0.40;0.40;;;;;;;19.67;64.37;99054.97;6182292;23;20025;-84
2023/09/06 08:09:33;;;;;;;0.40;0.40;;;;;;;19.59;64.82;99065.75;6182715;23;20047;-86
2023/09/06 08:12:02;;;;;;;0.30;0.30;;;;;;;19.48;65.14;99055.00;6098152;23;20057;-86
2023/09/06 08:14:30;;;;;;;0.32;0.32;;;;;;;19.54;65.42;99072.13;6147893;23;20057;-88
2023/09/06 08:16:59;;;;;;;0.40;0.40;;;;;;;19.59;64.44;99076.72;6147989;23;20025;-86
2023/09/06 08:19:28;;;;;;;0.40;0.40;;;;;;;19.62;63.95;99065.16;6123108;23;20225;-86
2023/09/06 08:21:57;;;;;;;0.40;0.40;;;;;;;19.63;64.28;99055.84;6121275;23;20073;-89
2023/09/06 08:24:24;;;;;;;0.43;0.43;;;;;;;20.55;61.16;99056.72;6101587;23;20469;-88
2023/09/06 08:26:52;;;;;;;0.50;0.50;;;;;;;20.02;62.31;99068.25;6147800;23;20017;-84
2023/09/06 08:29:22;;;;;;;0.60;0.60;;;;;;;20.58;60.33;99067.06;6146573;23;20040;-85
2023/09/06 08:31:52;;;;;;;0.60;0.60;;;;;;;21.34;57.82;99071.81;6121639;23;20363;-83
2023/09/06 08:34:20;;;;;;;0.70;0.70;;;;;;;21.86;55.88;99072.91;6146986;23;20042;-85
2023/09/06 08:36:48;;;;;;;0.70;0.70;;;;;;;;;;6146924;23;20105;-85
2023/09/06 08:39:17;;;;;;;0.50;0.50;;;;;;;22.27;53.11;99073.69;6146730;23;20025;-87
2023/09/06 08:41:49;;;;;;;0.70;0.70;;;;;;;22.54;51.86;99063.56;6100199;23;20022;-90
2023/09/06 08:44:27;;;;;;;0.40;0.40;;;;;;;22.28;51.89;99064.31;6172523;23;20024;-90
2023/09/06 08:47:03;;;;;;;0.40;0.40;;;;;;;20.97;54.29;99065.59;6148610;23;20025;-89
2023/09/06 08:49:33;;;;;;;0.50;0.50;;;;;;;20.55;56.48;99064.94;6212593;23;20115;-90
2023/09/06 08:52:03;;;;;;;0.40;0.40;;;;;;;20.26;57.92;99066.09;6143143;23;20051;-90
2023/09/06 08:54:30;;;;;;;0.70;0.70;;;;;;;21.36;55.00;99077.78;6188345;23;20080;-90
2023/09/06 08:56:58;;;;;;;0.50;0.50;;;;;;;22.41;51.90;99043.31;6192383;23;20032;-91
2023/09/06 08:59:32;;;;;;;0.50;0.50;;;;;;;22.07;52.04;99066.81;6189142;23;20031;-90
2023/09/06 09:01:59;;;;;;;0.50;0.50;;;;;;;22.46;51.37;99076.97;6191079;23;20071;-89
2023/09/06 09:04:40;;;;;;;0.70;0.70;;;;;;;22.99;48.46;99082.50;6168811;23;20096;-91
2023/09/06 09:07:20;;;;;;;0.40;0.40;;;;;;;23.10;46.62;99059.03;6165406;23;20025;-91
2023/09/06 09:10:01;;;;;;;0.40;0.40;;;;;;;21.87;49.76;99059.97;6196494;23;20646;-92
2023/09/06 09:12:31;;;;;;;0.40;0.40;;;;;;;21.10;51.95;99067.47;6199770;23;20016;-92
2023/09/06 09:15:15;;;;;;;0.40;0.40;;;;;;;21.52;51.33;99076.31;6145639;23;20024;-90
2023/09/06 09:17:50;;;;;;;0.30;0.30;;;;;;;20.90;52.50;99081.69;6195462;23;20354;-90
2023/09/06 09:20:27;;;;;;;0.30;0.30;;;;;;;20.31;53.98;99085.16;6219821;23;20024;-90
2023/09/06 09:23:03;;;;;;;0.30;0.30;;;;;;;19.84;55.78;99075.44;6225080;23;20100;-89
2023/09/06 09:25:32;;;;;;;0.40;0.40;;;;;;;19.51;57.17;99082.91;6168775;23;20016;-90
2023/09/06 09:28:00;;;;;;;0.30;0.30;;;;;;;19.26;58.33;99077.56;6219237;23;20016;-88
2023/09/06 09:30:30;;;;;;;0.40;0.40;;;;;;;19.08;59.22;99094.03;6201513;23;20021;-90
2023/09/06 09:33:06;;;;;;;0.40;0.40;;;;;;;19.05;59.51;99093.50;6155220;23;20337;-89
2023/09/06 09:35:35;;;;;;;0.40;0.40;;;;;;;19.03;59.55;99105.84;6204038;23;20039;-89
2023/09/06 09:38:05;;;;;;;0.40;0.40;;;;;;;19.08;59.65;99100.31;6235957;23;20044;-89
2023/09/06 09:40:36;;;;;;;0.40;0.40;;;;;;;19.28;59.37;99101.88;6176470;23;20000;-90
2023/09/06 09:43:20;;;;;;;0.40;0.40;;;;;;;19.32;58.86;99105.66;6214261;23;20068;-88
2023/09/06 09:45:48;;;;;;;0.40;0.40;;;;;;;19.38;58.56;99115.41;6147908;23;20048;-86
2023/09/06 09:48:22;;;;;;;0.40;0.40;;;;;;;19.19;58.43;99099.03;6173103;23;20054;-90
2023/09/06 09:50:55;;;;;;;0.40;0.40;;;;;;;19.32;58.25;99111.13;6196181;23;20024;-86
2023/09/06 09:53:32;;;;;;;0.40;0.40;;;;;;;19.53;57.40;99113.53;6141533;23;20665;-88
2023/09/06 09:56:08;;;;;;;0.40;0.40;;;;;;;19.59;56.79;99101.34;6135816;23;20615;-86
2023/09/06 09:58:36;;;;;;;0.40;0.40;;;;;;;19.69;57.02;99112.16;6156884;23;20036;-84
2023/09/06 10:01:08;;;;;;;0.40;0.40;;;;;;;19.94;56.58;99110.84;6132527;23;20024;-84
2023/09/06 10:03:38;;;;;;;0.40;0.40;;;;;;;19.70;56.63;99124.75;6182850;23;20048;-84
2023/09/06 10:06:07;;;;;;;0.50;0.50;;;;;;;19.79;56.53;99108.41;6157174;23;20025;-84
2023/09/06 10:08:35;;;;;;;0.80;0.80;;;;;;;21.83;51.64;99098.25;6156658;23;20048;-82
2023/09/06 10:11:06;;;;;;;0.50;0.50;;;;;;;22.85;48.89;99110.16;6172209;23;20025;-86
2023/09/06 10:13:37;;;;;;;0.80;0.80;;;;;;;23.30;47.74;99107.88;6156684;23;20367;-84
2023/09/06 10:16:07;;;;;;;0.57;0.57;;;;;;;22.80;47.86;99111.13;6181685;23;20038;-86
2023/09/06 10:18:36;;;;;;;0.30;0.30;;;;;;;21.34;51.98;99107.50;6158045;23;20035;-86
2023/09/06 10:21:04;;;;;;;0.30;0.30;;;;;;;20.30;54.70;99101.91;6135387;23;20021;-85
2023/09/06 10:23:50;;;;;;;0.30;0.30;;;;;;;19.68;57.20;99111.34;6186143;23;20021;-88
2023/09/06 10:26:48;;;;;;;0.30;0.30;;;;;;;19.20;58.70;99094.38;6188231;23;20017;-85
2023/09/06 10:29:29;;;;;;;0.30;0.30;;;;;;;19.07;59.13;99120.56;6182272;23;20013;-88
2023/09/06 10:32:05;;;;;;;0.30;0.30;;;;;;;18.94;59.26;99107.63;6184140;23;20009;-86
2023/09/06 10:34:33;;;;;;;0.40;0.40;;;;;;;18.89;59.58;99110.44;6164039;23;20021;-88
2023/09/06 10:37:06;;;;;;;0.40;0.40;;;;;;;18.90;59.94;99123.81;6164697;23;20045;-89
2023/09/06 10:39:51;;;;;;;0.40;0.40;;;;;;;19.22;59.68;99141.41;6192597;23;20021;-88
2023/09/06 10:42:19;;;;;;;0.40;0.40;;;;;;;19.57;58.59;99120.00;6119570;23;20021;-89
2023/09/06 10:45:17;;;;;;;0.50;0.50;;;;;;;20.30;54.92;99110.13;6168611;23;20304;-88
2023/09/06 10:48:10;;;;;;;0.40;0.40;;;;;;;21.26;50.73;99102.75;6108727;23;20017;-89
2023/09/06 10:51:04;;;;;;;0.77;0.77;;;;;;;22.61;47.93;99100.44;6080439;23;20055;-89
2023/09/06 10:53:31;;;;;;;0.80;0.80;;;;;;;23.90;43.77;99092.34;6101006;23;20107;-90
2023/09/06 10:56:01;;;;;;;0.70;0.70;;;;;;;24.75;40.99;99104.38;6097532;23;20094;-88
2023/09/06 10:58:29;;;;;;;0.70;0.70;;;;;;;24.88;40.21;99106.03;6098317;23;20514;-89
2023/09/06 11:01:18;;;;;;;0.70;0.70;;;;;;;25.28;39.24;99100.03;6034965;23;20552;-90
2023/09/06 11:03:53;;;;;;;0.70;0.70;;;;;;;25.19;38.61;99096.53;6111418;23;20014;-89
2023/09/06 11:06:23;;;;;;;0.60;0.60;;;;;;;25.62;37.92;99096.06;6088777;23;20049;-88
2023/09/06 11:08:51;;;;;;;0.60;0.60;;;;;;;25.79;37.16;99108.91;6095489;23;20018;-89
2023/09/06 11:11:22;;;;;;;0.50;0.50;;;;;;;26.28;36.04;99108.97;6102202;23;20022;-91
2023/09/06 11:13:56;;;;;;;0.60;0.60;;;;;;;27.08;35.09;99107.41;6085455;23;20018;-90
2023/09/06 11:16:31;;;;;;;0.70;0.70;;;;;;;26.23;35.48;99098.13;6099974;23;20033;-88
2023/09/06 11:19:01;;;;;;;0.50;0.50;;;;;;;26.69;33.95;99087.72;6169354;22;20028;-91
2023/09/06 11:21:42;;;;;;;0.70;0.70;;;;;;;27.41;33.78;99101.63;6151056;23;20025;-89
2023/09/06 11:24:19;;;;;;;0.60;0.60;;;;;;;27.72;33.03;99093.72;6223575;23;20036;-92
2023/09/06 11:27:19;;;;;;;0.60;0.60;;;;;;;28.07;32.08;99094.63;6226810;23;20020;-91
2023/09/06 11:30:09;;;;;;;0.60;0.60;;;;;;;25.97;35.37;99104.00;6174623;23;20020;-90
2023/09/06 11:32:39;;;;;;;0.60;0.60;;;;;;;24.39;37.11;99078.94;6184784;23;20020;-91
2023/09/06 11:35:10;;;;;;;0.70;0.70;;;;;;;24.53;36.96;99084.22;6231534;23;20024;-90
2023/09/06 11:37:39;;;;;;;0.70;0.70;;;;;;;25.11;36.73;99111.22;6230966;23;20025;-91
2023/09/06 11:40:15;;;;;;;0.30;0.30;;;;;;;25.43;35.94;99104.09;6206866;23;20076;-90
2023/09/06 11:42:56;;;;;;;0.30;0.30;;;;;;;25.64;35.57;99091.03;6176865;23;20024;-90
2023/09/06 11:45:25;;;;;;;0.63;0.63;;;;;;;25.71;35.14;99098.75;6224082;23;20052;-90
2023/09/06 11:47:54;;;;;;;0.30;0.30;;;;;;;25.90;34.87;99099.06;6205080;23;20024;-89
2023/09/06 11:50:23;;;;;;;0.80;0.80;;;;;;;26.31;35.00;99101.94;6233482;23;20021;-91
2023/09/06 11:52:58;;;;;;;0.50;0.50;;;;;;;26.48;34.88;99106.38;6157638;23;20075;-90
2023/09/06 11:55:49;;;;;;;0.30;0.30;;;;;;;24.67;37.68;99108.00;6157163;23;20020;-91